Ana Sayfa
METAR-TAF:

METAR-TAF

Havaalanları :

Syros, Yunanistan

Enlem: 37-25-16N, Boylam: 024-56-54E, yükseklik: 73 m

Güncel hava durumu gözlemi

Rapor saat 12:20 UTC de 22 dakika önce yapıldı.
Rüzgar kuzey/kuzeydoğudan 9 kt
Sıcaklık 29°C
Nem 55%
Basınç 1002 hPa

METAR: LGSO 061220Z AUTO 02009KT //// // ////// 29/19 Q1002 RE//

Saat: 15:42 (12:42 UTC)


TAF: eksik

4.000'den fazla havaalanı için hava durumu gözlemleri ve tahminleri (METAR ve TAF raporları).

Kullanılabilir istasyonlar harita üzerinde sarı ve kırmızı noktalarla gösterilir.

İstasyonun adını görmek için fareyi noktanın üzerinde gezdirin.

Sonrasında hava gözlem ve tahminlerini görmek için tıklayın.

Haritayı değiştirmek için: yaklaştırmak için siyah artı işaretli yeşil düğmeye ve uzaklaştırmak için de eksi işaretli düğmeye hızla tıklayın; bitişik haritalar için yeşil okları kullanın.


METAR-TAF: